createdAt,value
2023-02-13T00:00:23.578Z,3.56
2023-02-13T00:03:46.405Z,3.55
2023-02-13T00:06:49.737Z,3.56
2023-02-13T00:09:52.537Z,3.54
2023-02-13T00:12:55.359Z,3.54
2023-02-13T00:16:00.925Z,3.49
2023-02-13T00:19:03.824Z,3.43
2023-02-13T00:22:06.742Z,3.41
2023-02-13T00:25:09.840Z,3.36
2023-02-13T00:28:12.744Z,3.34
2023-02-13T00:31:19.179Z,3.32
2023-02-13T00:34:23.330Z,3.38
2023-02-13T00:37:26.502Z,3.37
2023-02-13T00:40:29.333Z,3.37
2023-02-13T00:43:32.611Z,3.34
2023-02-13T00:46:35.583Z,3.34
2023-02-13T00:49:38.382Z,3.34
2023-02-13T00:52:41.196Z,3.30
2023-02-13T00:55:44.902Z,3.30
2023-02-13T00:58:47.854Z,3.28
2023-02-13T01:01:51.137Z,3.28
2023-02-13T01:04:54.043Z,3.28
2023-02-13T01:07:57.070Z,3.28
2023-02-13T01:11:00.355Z,3.22
2023-02-13T01:14:03.462Z,3.20
2023-02-13T01:17:06.225Z,3.15
2023-02-13T01:20:11.311Z,3.13
2023-02-13T01:23:14.177Z,3.12
2023-02-13T01:26:19.813Z,3.05
2023-02-13T01:29:22.712Z,3.07
2023-02-13T01:32:25.748Z,3.06
2023-02-13T01:35:28.567Z,3.17
2023-02-13T01:38:31.392Z,3.12
2023-02-13T01:41:35.701Z,3.11
2023-02-13T01:44:52.176Z,3.20
2023-02-13T01:48:11.200Z,3.14
2023-02-13T01:51:20.364Z,3.23
2023-02-13T01:54:31.263Z,3.17
2023-02-13T01:57:36.980Z,3.19
2023-02-13T02:00:40.404Z,3.26
2023-02-13T02:03:53.137Z,3.21
2023-02-13T02:07:00.505Z,3.26
2023-02-13T02:10:10.256Z,3.12
2023-02-13T02:13:19.343Z,3.08
2023-02-13T02:16:22.850Z,3.14
2023-02-13T02:19:40.761Z,3.08
2023-02-13T02:22:46.798Z,3.21
2023-02-13T02:26:04.648Z,2.99
2023-02-13T02:29:29.852Z,3.03
2023-02-13T02:32:58.348Z,2.92
2023-02-13T02:36:33.188Z,2.87
2023-02-13T02:39:57.786Z,2.86
2023-02-13T02:43:16.007Z,2.92
2023-02-13T02:46:37.559Z,2.72
2023-02-13T02:49:59.926Z,2.69
2023-02-13T02:53:24.455Z,2.70
2023-02-13T02:56:34.772Z,2.67
2023-02-13T02:59:59.257Z,2.65
2023-02-13T03:03:23.911Z,2.64
2023-02-13T03:06:35.932Z,2.60
2023-02-13T03:10:05.565Z,2.54
2023-02-13T03:13:23.905Z,2.44
2023-02-13T03:16:45.540Z,2.32
2023-02-13T03:20:38.734Z,2.41
2023-02-13T03:24:04.928Z,2.37
2023-02-13T03:27:44.861Z,2.38
2023-02-13T03:30:50.304Z,2.45
2023-02-13T03:34:25.433Z,2.39
2023-02-13T03:37:52.763Z,2.30
2023-02-13T03:41:20.683Z,2.22
2023-02-13T03:45:09.490Z,2.20
2023-02-13T03:48:35.385Z,2.20
2023-02-13T03:51:52.342Z,2.14
2023-02-13T03:55:22.979Z,2.11
2023-02-13T03:58:53.998Z,2.01
2023-02-13T04:02:02.862Z,2.13
2023-02-13T04:05:15.568Z,2.16
2023-02-13T04:08:18.297Z,2.15
2023-02-13T04:11:30.633Z,2.14
2023-02-13T04:15:12.124Z,2.11
2023-02-13T04:18:20.896Z,2.07
2023-02-13T04:21:24.274Z,2.00
2023-02-13T04:24:27.840Z,1.96
2023-02-13T04:27:30.464Z,2.01
2023-02-13T04:30:33.972Z,1.99
2023-02-13T04:33:36.558Z,1.92
2023-02-13T04:36:39.834Z,1.93
2023-02-13T04:39:42.449Z,1.94
2023-02-13T04:42:48.542Z,1.93
2023-02-13T04:45:51.704Z,1.91
2023-02-13T04:48:54.891Z,2.00
2023-02-13T04:51:57.524Z,2.11
2023-02-13T04:55:00.684Z,1.95
2023-02-13T04:58:03.183Z,1.92
2023-02-13T05:01:15.252Z,1.86
2023-02-13T05:04:17.900Z,1.91
2023-02-13T05:07:21.056Z,1.87
2023-02-13T05:10:23.607Z,1.85
2023-02-13T05:13:26.849Z,1.81
2023-02-13T05:16:29.486Z,1.79
2023-02-13T05:19:32.585Z,1.80
2023-02-13T05:22:53.713Z,1.80
2023-02-13T05:25:56.791Z,1.81
2023-02-13T05:29:17.917Z,1.77
2023-02-13T05:32:21.007Z,1.73
2023-02-13T05:35:24.894Z,1.75
2023-02-13T05:38:28.014Z,1.76
2023-02-13T05:41:30.676Z,1.76
2023-02-13T05:44:33.861Z,1.81
2023-02-13T05:47:36.965Z,1.84
2023-02-13T05:50:43.553Z,1.80
2023-02-13T05:53:46.136Z,1.87
2023-02-13T05:56:49.284Z,1.89
2023-02-13T05:59:51.789Z,1.83
2023-02-13T06:02:54.885Z,1.82
2023-02-13T06:05:58.302Z,1.83
2023-02-13T06:09:01.082Z,1.78
2023-02-13T06:12:04.161Z,1.79
2023-02-13T06:15:07.664Z,1.88
2023-02-13T06:18:11.271Z,1.94
2023-02-13T06:21:14.198Z,1.97
2023-02-13T06:24:17.144Z,1.90
2023-02-13T06:27:20.030Z,1.91
2023-02-13T06:30:23.120Z,2.03
2023-02-13T06:33:26.102Z,1.99
2023-02-13T06:36:29.080Z,2.01
2023-02-13T06:39:31.868Z,2.16
2023-02-13T06:42:34.750Z,2.24
2023-02-13T06:45:38.277Z,2.22
2023-02-13T06:48:40.953Z,2.20
2023-02-13T06:51:44.098Z,2.22
2023-02-13T06:54:48.210Z,2.28
2023-02-13T06:57:51.149Z,2.28
2023-02-13T07:00:54.129Z,2.35
2023-02-13T07:03:57.657Z,2.46
2023-02-13T07:07:00.434Z,2.58
2023-02-13T07:10:04.859Z,2.62
2023-02-13T07:13:08.466Z,2.65
2023-02-13T07:16:11.556Z,2.85
2023-02-13T07:19:14.724Z,2.91
2023-02-13T07:22:17.476Z,2.99
2023-02-13T07:25:20.313Z,3.15
2023-02-13T07:28:23.131Z,3.22
2023-02-13T07:31:26.093Z,3.29
2023-02-13T07:34:29.047Z,3.33
2023-02-13T07:37:32.018Z,3.60
2023-02-13T07:40:34.822Z,3.77
2023-02-13T07:43:37.645Z,3.65
2023-02-13T07:46:40.514Z,3.83
2023-02-13T07:49:44.653Z,4.13
2023-02-13T07:52:58.262Z,4.29
2023-02-13T07:56:09.133Z,4.47
2023-02-13T07:59:12.044Z,4.89
2023-02-13T08:02:16.340Z,5.36
2023-02-13T08:05:19.604Z,5.96
2023-02-13T08:08:22.327Z,6.75
2023-02-13T08:11:51.608Z,7.67
2023-02-13T08:14:54.282Z,10.06
2023-02-13T08:17:57.692Z,13.59
2023-02-13T08:21:02.568Z,14.92
2023-02-13T08:24:06.923Z,14.77
2023-02-13T08:27:14.661Z,14.12
2023-02-13T08:30:18.236Z,14.74
2023-02-13T08:33:20.903Z,15.86
2023-02-13T08:36:24.842Z,17.54
2023-02-13T08:39:27.500Z,18.02
2023-02-13T08:42:31.424Z,18.95
2023-02-13T08:45:36.197Z,20.21
2023-02-13T08:48:39.369Z,20.92
2023-02-13T08:51:42.050Z,20.90
2023-02-13T08:54:45.291Z,21.19
2023-02-13T08:57:48.051Z,21.64
2023-02-13T09:00:51.300Z,21.39
2023-02-13T09:03:54.152Z,21.18
2023-02-13T09:06:57.328Z,21.69
2023-02-13T09:09:59.996Z,23.16
2023-02-13T09:13:05.951Z,25.33
2023-02-13T09:16:15.247Z,27.98
2023-02-13T09:19:22.766Z,30.57
2023-02-13T09:22:25.384Z,32.58
2023-02-13T09:25:28.620Z,33.89
2023-02-13T09:28:32.429Z,34.64
2023-02-13T09:31:35.729Z,35.43
2023-02-13T09:34:38.435Z,35.93
2023-02-13T09:37:41.523Z,36.20
2023-02-13T09:41:03.202Z,36.83
2023-02-13T09:44:35.059Z,37.38
2023-02-13T09:47:41.404Z,37.28
2023-02-13T09:50:44.602Z,37.57
2023-02-13T09:54:11.169Z,37.62
2023-02-13T09:57:25.495Z,37.72
2023-02-13T10:00:39.447Z,38.29
2023-02-13T10:03:48.211Z,37.67
2023-02-13T10:07:16.330Z,37.09
2023-02-13T10:10:38.170Z,36.82
2023-02-13T10:13:49.582Z,35.73
2023-02-13T10:17:05.478Z,34.17
2023-02-13T10:20:36.622Z,30.38
2023-02-13T10:23:50.320Z,26.35
2023-02-13T10:26:55.052Z,23.71
2023-02-13T10:30:07.120Z,22.85
2023-02-13T10:33:21.060Z,22.14
2023-02-13T10:36:33.941Z,21.27
2023-02-13T10:39:36.631Z,20.67
2023-02-13T10:42:46.521Z,20.25
2023-02-13T10:45:52.250Z,19.94
2023-02-13T10:49:29.722Z,19.67
2023-02-13T10:52:50.571Z,19.38
2023-02-13T10:56:30.794Z,19.32
2023-02-13T11:00:01.249Z,18.52
2023-02-13T11:03:04.905Z,18.45
2023-02-13T11:06:14.525Z,18.41
2023-02-13T11:09:18.164Z,18.57
2023-02-13T11:12:32.831Z,18.38
2023-02-13T11:15:37.170Z,18.51
2023-02-13T11:18:50.337Z,18.36
2023-02-13T11:21:57.766Z,17.78
2023-02-13T11:25:17.404Z,17.35
2023-02-13T11:28:21.717Z,17.38
2023-02-13T11:31:31.530Z,17.35
2023-02-13T11:34:35.197Z,16.78
2023-02-13T11:37:37.604Z,16.36
2023-02-13T11:40:44.494Z,16.23
2023-02-13T11:44:01.393Z,16.06
2023-02-13T11:47:04.867Z,16.15
2023-02-13T11:50:25.967Z,16.56
2023-02-13T11:53:36.537Z,16.32
2023-02-13T11:57:28.711Z,16.58
2023-02-13T12:00:42.909Z,16.79
2023-02-13T12:04:17.373Z,16.77
2023-02-13T12:07:30.020Z,16.84
2023-02-13T12:10:37.187Z,17.09
2023-02-13T12:13:40.338Z,17.34
2023-02-13T12:16:50.984Z,16.73
2023-02-13T12:19:55.701Z,16.45
2023-02-13T12:23:12.572Z,16.49
2023-02-13T12:26:22.734Z,16.31
2023-02-13T12:29:25.601Z,16.38
2023-02-13T12:32:46.592Z,15.94
2023-02-13T12:36:07.825Z,15.76
2023-02-13T12:39:37.566Z,16.12
2023-02-13T12:42:48.240Z,16.34
2023-02-13T12:46:06.891Z,16.49
2023-02-13T12:49:31.528Z,16.47
2023-02-13T12:52:46.036Z,16.38
2023-02-13T12:56:07.729Z,16.36
2023-02-13T12:59:51.171Z,16.22
2023-02-13T13:02:59.796Z,15.43
2023-02-13T13:06:40.963Z,15.34
2023-02-13T13:09:58.002Z,16.40
2023-02-13T13:13:27.935Z,18.11
2023-02-13T13:16:45.300Z,20.30
2023-02-13T13:20:23.169Z,22.24
2023-02-13T13:23:52.868Z,24.02
2023-02-13T13:26:58.130Z,25.03
2023-02-13T13:30:13.367Z,25.69
2023-02-13T13:33:21.491Z,25.93
2023-02-13T13:36:41.718Z,25.02
2023-02-13T13:39:57.322Z,22.92
2023-02-13T13:43:13.510Z,21.12
2023-02-13T13:46:32.784Z,19.46
2023-02-13T13:49:50.046Z,18.24
2023-02-13T13:53:12.119Z,17.17
2023-02-13T13:56:15.328Z,16.32
2023-02-13T13:59:33.822Z,15.83
2023-02-13T14:02:59.030Z,15.24
2023-02-13T14:06:09.442Z,14.72
2023-02-13T14:09:38.201Z,14.15
2023-02-13T14:13:02.556Z,13.82
2023-02-13T14:16:10.077Z,13.53
2023-02-13T14:19:43.642Z,13.01
2023-02-13T14:22:46.270Z,12.79
2023-02-13T14:25:49.749Z,12.56
2023-02-13T14:28:52.110Z,12.33
2023-02-13T14:32:04.320Z,12.15
2023-02-13T14:35:12.981Z,11.97
2023-02-13T14:38:25.392Z,11.67
2023-02-13T14:41:46.376Z,11.37
2023-02-13T14:44:52.812Z,11.17
2023-02-13T14:47:58.080Z,11.00
2023-02-13T14:51:06.001Z,10.73
2023-02-13T14:54:29.904Z,10.65
2023-02-13T14:57:37.647Z,10.53
2023-02-13T15:00:52.565Z,10.24
2023-02-13T15:04:05.553Z,10.09
2023-02-13T15:07:17.936Z,10.01
2023-02-13T15:10:44.612Z,9.96
2023-02-13T15:13:47.120Z,9.96
2023-02-13T15:16:55.800Z,9.76
2023-02-13T15:20:29.143Z,9.66
2023-02-13T15:23:35.260Z,9.66
2023-02-13T15:26:38.020Z,9.54
2023-02-13T15:29:54.302Z,9.46
2023-02-13T15:33:02.945Z,9.43
2023-02-13T15:36:06.608Z,9.35
2023-02-13T15:39:18.948Z,9.33
2023-02-13T15:42:22.411Z,9.27
2023-02-13T15:45:27.535Z,9.12
2023-02-13T15:48:32.271Z,9.01
2023-02-13T15:51:35.349Z,8.92
2023-02-13T15:54:49.388Z,8.84
2023-02-13T15:57:55.047Z,8.74
2023-02-13T16:01:04.798Z,8.75
2023-02-13T16:04:12.438Z,8.62
2023-02-13T16:07:15.475Z,8.49
2023-02-13T16:10:27.805Z,8.41
2023-02-13T16:13:30.719Z,8.40
2023-02-13T16:16:43.031Z,8.34
2023-02-13T16:19:55.710Z,8.30
2023-02-13T16:23:13.942Z,8.40
2023-02-13T16:26:16.897Z,8.34
2023-02-13T16:29:26.312Z,8.31
2023-02-13T16:32:34.890Z,8.23
2023-02-13T16:35:40.968Z,8.18
2023-02-13T16:38:45.797Z,8.10
2023-02-13T16:41:48.812Z,8.06
2023-02-13T16:45:11.613Z,8.05
2023-02-13T16:48:15.702Z,7.95
2023-02-13T16:51:30.396Z,7.94
2023-02-13T16:54:56.984Z,7.86
2023-02-13T16:58:05.206Z,7.78
2023-02-13T17:01:15.811Z,7.70
2023-02-13T17:04:24.948Z,7.70
2023-02-13T17:07:30.373Z,7.65
2023-02-13T17:10:35.811Z,7.61
2023-02-13T17:13:59.528Z,7.59
2023-02-13T17:17:10.246Z,7.66
2023-02-13T17:20:18.788Z,7.66
2023-02-13T17:23:25.184Z,7.66
2023-02-13T17:26:29.800Z,7.69
2023-02-13T17:29:35.352Z,7.77
2023-02-13T17:32:42.602Z,7.69
2023-02-13T17:35:47.649Z,7.67
2023-02-13T17:38:52.252Z,7.75
2023-02-13T17:41:56.334Z,7.80
2023-02-13T17:45:01.024Z,7.84
2023-02-13T17:48:06.069Z,7.81
2023-02-13T17:51:14.089Z,7.74
2023-02-13T17:54:16.930Z,7.73
2023-02-13T17:57:20.143Z,7.70
2023-02-13T18:00:24.653Z,7.64
2023-02-13T18:03:27.803Z,7.58
2023-02-13T18:06:30.594Z,7.53
2023-02-13T18:09:33.654Z,7.46
2023-02-13T18:12:36.534Z,7.47
2023-02-13T18:15:42.556Z,7.41
2023-02-13T18:18:45.467Z,7.45
2023-02-13T18:21:48.309Z,7.35
2023-02-13T18:24:51.698Z,7.30
2023-02-13T18:27:55.367Z,7.29
2023-02-13T18:30:58.525Z,7.24
2023-02-13T18:34:01.694Z,7.20
2023-02-13T18:37:05.942Z,7.19
2023-02-13T18:40:09.988Z,7.17
2023-02-13T18:43:12.773Z,7.12
2023-02-13T18:46:15.660Z,7.12
2023-02-13T18:49:18.552Z,7.08
2023-02-13T18:52:21.404Z,7.09
2023-02-13T18:55:24.234Z,6.97
2023-02-13T18:58:27.143Z,6.93
2023-02-13T19:01:30.108Z,6.87
2023-02-13T19:04:35.155Z,6.83
2023-02-13T19:07:38.038Z,6.82
2023-02-13T19:10:41.010Z,6.82
2023-02-13T19:13:44.600Z,6.76
2023-02-13T19:16:47.449Z,6.78
2023-02-13T19:19:50.530Z,6.71
2023-02-13T19:22:55.186Z,6.67
2023-02-13T19:25:59.329Z,6.64
2023-02-13T19:29:02.228Z,6.65
2023-02-13T19:32:05.286Z,6.63
2023-02-13T19:35:08.390Z,6.60
2023-02-13T19:38:11.385Z,6.73
2023-02-13T19:41:17.275Z,6.72
2023-02-13T19:44:20.123Z,6.66
2023-02-13T19:47:23.022Z,6.62
2023-02-13T19:50:25.843Z,6.66
2023-02-13T19:53:28.756Z,6.58
2023-02-13T19:56:33.332Z,6.58
2023-02-13T19:59:36.243Z,6.60
2023-02-13T20:02:39.044Z,6.58
2023-02-13T20:05:41.963Z,6.59
2023-02-13T20:08:45.119Z,6.48
2023-02-13T20:11:48.098Z,6.47
2023-02-13T20:14:50.969Z,6.43
2023-02-13T20:17:53.801Z,6.42
2023-02-13T20:20:57.179Z,6.42
2023-02-13T20:24:00.349Z,6.37
2023-02-13T20:27:03.183Z,6.35
2023-02-13T20:30:07.858Z,6.39
2023-02-13T20:33:11.133Z,6.39
2023-02-13T20:36:16.937Z,6.35
2023-02-13T20:39:19.707Z,6.34
2023-02-13T20:42:22.554Z,6.27
2023-02-13T20:45:25.377Z,6.25
2023-02-13T20:48:28.527Z,6.20
2023-02-13T20:51:31.548Z,6.23
2023-02-13T20:54:34.764Z,6.17
2023-02-13T20:57:37.731Z,6.25
2023-02-13T21:00:40.710Z,6.18
2023-02-13T21:03:44.660Z,6.09
2023-02-13T21:06:48.052Z,6.02
2023-02-13T21:09:50.859Z,5.96
2023-02-13T21:12:53.701Z,5.93
2023-02-13T21:16:04.775Z,5.94
2023-02-13T21:19:12.496Z,5.86
2023-02-13T21:22:15.307Z,5.83
2023-02-13T21:25:18.827Z,5.80
2023-02-13T21:28:21.792Z,5.77
2023-02-13T21:31:40.683Z,5.74
2023-02-13T21:34:43.711Z,5.71
2023-02-13T21:37:46.656Z,5.81
2023-02-13T21:40:49.499Z,5.77
2023-02-13T21:43:52.837Z,5.79
2023-02-13T21:46:56.507Z,5.75
2023-02-13T21:50:00.570Z,5.71
2023-02-13T21:53:03.618Z,5.73
2023-02-13T21:56:09.198Z,5.69
2023-02-13T21:59:16.842Z,5.67
2023-02-13T22:02:19.808Z,5.68
2023-02-13T22:05:23.016Z,5.69
2023-02-13T22:08:25.565Z,5.66
2023-02-13T22:11:29.453Z,5.68
2023-02-13T22:14:32.031Z,5.67
2023-02-13T22:17:36.769Z,5.63
2023-02-13T22:20:39.971Z,5.61
2023-02-13T22:23:44.702Z,5.56
2023-02-13T22:26:47.341Z,5.52
2023-02-13T22:29:53.449Z,5.48
2023-02-13T22:32:57.017Z,5.45
2023-02-13T22:36:00.639Z,5.42
2023-02-13T22:39:03.220Z,5.38
2023-02-13T22:42:07.262Z,5.31
2023-02-13T22:45:09.913Z,5.30
2023-02-13T22:48:13.040Z,5.30
2023-02-13T22:51:18.662Z,5.31
2023-02-13T22:54:21.790Z,5.32
2023-02-13T22:57:24.425Z,5.32
2023-02-13T23:00:29.081Z,5.30
2023-02-13T23:03:32.995Z,5.26
2023-02-13T23:06:36.196Z,5.26
2023-02-13T23:09:38.881Z,5.22
2023-02-13T23:12:45.666Z,5.17
2023-02-13T23:15:50.283Z,5.15
2023-02-13T23:18:55.622Z,5.16
2023-02-13T23:21:59.328Z,5.18
2023-02-13T23:25:05.246Z,5.17
2023-02-13T23:28:08.912Z,5.12
2023-02-13T23:31:12.128Z,5.09
2023-02-13T23:34:14.811Z,5.07
2023-02-13T23:37:18.545Z,5.04
2023-02-13T23:40:21.167Z,5.02
2023-02-13T23:43:24.253Z,5.04
2023-02-13T23:46:27.257Z,5.05
2023-02-13T23:49:30.690Z,5.06
2023-02-13T23:52:33.215Z,5.04
2023-02-13T23:55:36.452Z,5.00
2023-02-13T23:58:39.031Z,5.00
